createdAt,value
2016-03-21T00:00:28.458Z,0
2016-03-21T00:01:59.509Z,0
2016-03-21T00:02:30.306Z,0
2016-03-21T00:03:28.559Z,0
2016-03-21T00:04:47.549Z,0
2016-03-21T00:05:35.799Z,0
2016-03-21T00:06:48.570Z,0
2016-03-21T00:07:28.539Z,0
2016-03-21T00:08:28.604Z,0
2016-03-21T00:09:47.953Z,0
2016-03-21T00:10:28.469Z,0
2016-03-21T00:11:28.705Z,0
2016-03-21T00:12:47.571Z,0
2016-03-21T00:13:28.618Z,0
2016-03-21T00:14:28.198Z,0
2016-03-21T00:15:28.310Z,0
2016-03-21T00:16:34.751Z,0
2016-03-21T00:17:40.943Z,0
2016-03-21T00:18:41.665Z,0
2016-03-21T00:19:41.337Z,0
2016-03-21T00:21:20.327Z,0
2016-03-21T00:21:33.468Z,0
2016-03-21T00:22:53.082Z,0
2016-03-21T00:23:40.113Z,0
2016-03-21T00:24:33.631Z,0
2016-03-21T00:25:34.150Z,0
2016-03-21T00:26:35.089Z,0
2016-03-21T00:27:46.470Z,0
2016-03-21T00:28:36.345Z,0
2016-03-21T00:29:33.754Z,0
2016-03-21T00:30:53.025Z,0
2016-03-21T00:31:37.712Z,0
2016-03-21T00:32:34.106Z,0
2016-03-21T00:33:34.265Z,0
2016-03-21T00:34:46.739Z,0
2016-03-21T00:35:34.723Z,0
2016-03-21T00:36:33.350Z,0
2016-03-21T00:37:33.682Z,0
2016-03-21T00:38:33.825Z,0
2016-03-21T00:39:34.203Z,0
2016-03-21T00:40:34.784Z,0
2016-03-21T00:41:34.130Z,0
2016-03-21T00:42:33.992Z,0
2016-03-21T00:43:41.088Z,0
2016-03-21T00:44:46.641Z,0
2016-03-21T00:45:47.034Z,0
2016-03-21T00:47:30.959Z,0
2016-03-21T00:48:03.243Z,0
2016-03-21T00:48:44.883Z,0
2016-03-21T00:49:45.105Z,0
2016-03-21T00:50:46.126Z,0
2016-03-21T00:51:44.282Z,0
2016-03-21T00:52:43.768Z,0
2016-03-21T00:53:44.834Z,0
2016-03-21T00:54:56.856Z,0
2016-03-21T00:55:43.856Z,0
2016-03-21T00:57:03.204Z,0
2016-03-21T00:57:44.157Z,0
2016-03-21T00:59:53.650Z,0
2016-03-21T01:00:53.637Z,0
2016-03-21T01:01:54.999Z,0
2016-03-21T01:03:00.158Z,0
2016-03-21T01:03:53.661Z,0
2016-03-21T01:04:53.929Z,0
2016-03-21T01:05:54.494Z,0
2016-03-21T01:06:54.059Z,0
2016-03-21T01:08:06.516Z,0
2016-03-21T01:08:54.658Z,0
2016-03-21T01:10:59.289Z,0
2016-03-21T01:12:18.682Z,0
2016-03-21T01:13:00.982Z,0
2016-03-21T01:13:58.797Z,0
2016-03-21T01:15:02.065Z,0
2016-03-21T01:15:59.990Z,0
2016-03-21T01:17:02.290Z,0
2016-03-21T01:17:58.652Z,0
2016-03-21T01:18:58.341Z,0
2016-03-21T01:19:59.032Z,0
2016-03-21T01:20:59.285Z,0
2016-03-21T01:22:04.616Z,0
2016-03-21T01:22:58.665Z,0
2016-03-21T01:23:58.761Z,0
2016-03-21T01:24:58.608Z,0
2016-03-21T01:25:58.735Z,0
2016-03-21T01:26:58.676Z,0
2016-03-21T01:27:58.757Z,0
2016-03-21T01:29:11.431Z,0
2016-03-21T01:30:05.012Z,0
2016-03-21T01:31:11.734Z,0
2016-03-21T01:32:00.456Z,0
2016-03-21T01:33:12.754Z,0
2016-03-21T01:34:12.023Z,0
2016-03-21T01:34:59.698Z,0
2016-03-21T01:36:12.044Z,0
2016-03-21T01:36:58.906Z,0
2016-03-21T01:37:59.253Z,0
2016-03-21T01:39:11.880Z,0
2016-03-21T01:39:59.102Z,0
2016-03-21T01:42:08.528Z,0
2016-03-21T01:43:08.797Z,0
2016-03-21T01:44:08.909Z,0
2016-03-21T01:45:10.255Z,0
2016-03-21T01:46:27.789Z,0
2016-03-21T01:47:09.277Z,0
2016-03-21T01:49:12.876Z,0
2016-03-21T01:49:26.485Z,0
2016-03-21T01:50:25.754Z,0
2016-03-21T01:51:26.444Z,0
2016-03-21T01:52:45.619Z,0
2016-03-21T01:53:26.575Z,0
2016-03-21T01:54:26.921Z,0
2016-03-21T01:55:26.268Z,0
2016-03-21T01:56:26.364Z,0
2016-03-21T01:57:26.273Z,0
2016-03-21T01:58:39.276Z,0
2016-03-21T01:59:27.060Z,0
2016-03-21T02:00:51.999Z,0
2016-03-21T02:01:27.439Z,0
2016-03-21T02:02:27.037Z,0
2016-03-21T02:03:26.664Z,0
2016-03-21T02:04:26.838Z,0
2016-03-21T02:05:39.465Z,0
2016-03-21T02:06:26.609Z,0
2016-03-21T02:07:27.206Z,0
2016-03-21T02:08:26.848Z,0
2016-03-21T02:09:39.212Z,0
2016-03-21T02:10:26.292Z,0
2016-03-21T02:11:26.560Z,0
2016-03-21T02:12:26.734Z,0
2016-03-21T02:13:26.737Z,0
2016-03-21T02:14:26.537Z,0
2016-03-21T02:15:26.478Z,0
2016-03-21T02:16:32.731Z,0
2016-03-21T02:17:32.858Z,0
2016-03-21T02:18:40.141Z,0
2016-03-21T02:19:26.458Z,0
2016-03-21T02:20:46.100Z,0
2016-03-21T02:21:32.978Z,0
2016-03-21T02:22:27.058Z,0
2016-03-21T02:23:32.796Z,0
2016-03-21T02:24:28.314Z,0
2016-03-21T02:25:26.988Z,0
2016-03-21T02:26:26.522Z,0
2016-03-21T02:27:26.869Z,0
2016-03-21T02:28:26.590Z,0
2016-03-21T02:29:27.062Z,0
2016-03-21T02:30:26.767Z,0
2016-03-21T02:31:27.318Z,0
2016-03-21T02:32:26.867Z,0
2016-03-21T02:33:27.384Z,0
2016-03-21T02:34:29.934Z,0
2016-03-21T02:35:28.093Z,0
2016-03-21T02:36:52.628Z,0
2016-03-21T02:37:26.959Z,0
2016-03-21T02:39:24.557Z,0
2016-03-21T02:39:38.011Z,0
2016-03-21T02:41:40.501Z,0
2016-03-21T02:42:13.237Z,0
2016-03-21T02:42:55.112Z,0
2016-03-21T02:44:20.539Z,0
2016-03-21T02:45:30.683Z,0
2016-03-21T02:46:47.076Z,0
2016-03-21T02:47:30.985Z,0
2016-03-21T02:49:40.694Z,0
2016-03-21T02:50:59.556Z,0
2016-03-21T02:51:54.261Z,0
2016-03-21T02:52:59.858Z,0
2016-03-21T02:53:55.486Z,0
2016-03-21T02:56:11.962Z,0
2016-03-21T02:57:12.106Z,0
2016-03-21T02:58:32.327Z,0
2016-03-21T02:59:39.268Z,0
2016-03-21T03:01:07.820Z,0
2016-03-21T03:03:49.872Z,0
2016-03-21T03:04:33.891Z,0
2016-03-21T03:05:51.534Z,0
2016-03-21T03:06:36.629Z,0
2016-03-21T03:07:20.664Z,0
2016-03-21T03:09:56.558Z,0
2016-03-21T03:10:40.906Z,0
2016-03-21T03:12:37.583Z,0
2016-03-21T03:13:18.444Z,0
2016-03-21T03:14:05.932Z,0
2016-03-21T03:16:07.625Z,0
2016-03-21T03:16:45.781Z,0
2016-03-21T03:17:20.643Z,0
2016-03-21T03:19:17.493Z,0
2016-03-21T03:19:50.008Z,0
2016-03-21T03:21:26.904Z,0
2016-03-21T03:22:42.969Z,0
2016-03-21T03:24:02.940Z,0
2016-03-21T03:25:40.211Z,0
2016-03-21T03:26:12.058Z,0
2016-03-21T03:27:23.732Z,0
2016-03-21T03:28:55.047Z,0
2016-03-21T03:29:39.769Z,0
2016-03-21T03:30:09.053Z,0
2016-03-21T03:31:08.681Z,0
2016-03-21T03:32:20.824Z,0
2016-03-21T03:33:28.077Z,0
2016-03-21T03:34:33.720Z,0
2016-03-21T03:36:49.397Z,0
2016-03-21T03:37:23.525Z,0
2016-03-21T03:39:26.092Z,0
2016-03-21T03:39:58.483Z,0
2016-03-21T03:40:39.611Z,0
2016-03-21T03:42:10.320Z,0
2016-03-21T03:42:39.148Z,0
2016-03-21T03:43:38.994Z,0
2016-03-21T03:44:39.528Z,0
2016-03-21T03:45:39.781Z,0
2016-03-21T03:46:52.283Z,0
2016-03-21T03:47:59.177Z,0
2016-03-21T03:48:39.164Z,0
2016-03-21T03:49:38.886Z,0
2016-03-21T03:50:39.326Z,0
2016-03-21T03:51:39.953Z,0
2016-03-21T03:52:39.440Z,0
2016-03-21T03:53:39.146Z,0
2016-03-21T03:54:39.320Z,0
2016-03-21T03:55:39.168Z,0
2016-03-21T03:56:39.232Z,0
2016-03-21T03:57:39.423Z,0
2016-03-21T03:58:40.097Z,0
2016-03-21T03:59:39.256Z,0
2016-03-21T04:00:52.118Z,0
2016-03-21T04:01:52.651Z,0
2016-03-21T04:03:06.501Z,0
2016-03-21T04:03:39.439Z,0
2016-03-21T04:04:39.301Z,0
2016-03-21T04:05:51.897Z,0
2016-03-21T04:07:10.653Z,0
2016-03-21T04:07:39.168Z,0
2016-03-21T04:08:39.389Z,0
2016-03-21T04:09:51.798Z,0
2016-03-21T04:10:40.316Z,0
2016-03-21T04:11:52.179Z,0
2016-03-21T04:12:39.931Z,0
2016-03-21T04:13:40.434Z,0
2016-03-21T04:14:40.030Z,0
2016-03-21T04:15:53.158Z,0
2016-03-21T04:16:39.599Z,0
2016-03-21T04:17:59.476Z,0
2016-03-21T04:18:40.917Z,0
2016-03-21T04:19:39.435Z,0
2016-03-21T04:20:39.734Z,0
2016-03-21T04:21:40.112Z,0
2016-03-21T04:22:39.427Z,0
2016-03-21T04:23:39.993Z,0
2016-03-21T04:24:39.745Z,0
2016-03-21T04:25:40.107Z,0
2016-03-21T04:26:52.251Z,0
2016-03-21T04:27:40.487Z,0
2016-03-21T04:28:59.943Z,0
2016-03-21T04:29:39.602Z,0
2016-03-21T04:31:05.904Z,0
2016-03-21T04:31:40.107Z,0
2016-03-21T04:33:10.942Z,0
2016-03-21T04:33:40.051Z,0
2016-03-21T04:34:39.631Z,0
2016-03-21T04:35:40.462Z,0
2016-03-21T04:36:45.886Z,0
2016-03-21T04:37:39.670Z,0
2016-03-21T04:38:46.205Z,0
2016-03-21T04:39:40.003Z,0
2016-03-21T04:40:52.523Z,0
2016-03-21T04:41:41.056Z,0
2016-03-21T04:42:59.403Z,0
2016-03-21T04:43:59.046Z,0
2016-03-21T04:44:43.658Z,0
2016-03-21T04:45:43.286Z,0
2016-03-21T04:46:43.272Z,0
2016-03-21T04:47:45.182Z,0
2016-03-21T04:48:43.607Z,0
2016-03-21T04:49:44.031Z,0
2016-03-21T04:50:43.080Z,0
2016-03-21T04:51:43.271Z,0
2016-03-21T04:52:43.352Z,0
2016-03-21T04:53:43.104Z,0
2016-03-21T04:54:43.435Z,0
2016-03-21T04:55:44.312Z,4
2016-03-21T04:56:43.565Z,4
2016-03-21T04:57:44.459Z,0
2016-03-21T04:58:43.429Z,4
2016-03-21T04:59:55.917Z,4
2016-03-21T05:00:44.623Z,4
2016-03-21T05:01:55.938Z,8
2016-03-21T05:02:56.894Z,8
2016-03-21T05:04:02.913Z,8
2016-03-21T05:08:15.332Z,20
2016-03-21T05:08:27.911Z,20
2016-03-21T05:11:34.887Z,32
2016-03-21T05:12:04.215Z,32
2016-03-21T05:13:02.781Z,36
2016-03-21T05:14:15.739Z,48
2016-03-21T05:15:15.585Z,72
2016-03-21T05:16:22.244Z,104
2016-03-21T05:17:59.746Z,148
2016-03-21T05:20:34.473Z,208
2016-03-21T05:20:47.473Z,212
2016-03-21T05:21:47.288Z,236
2016-03-21T05:24:02.372Z,292
2016-03-21T05:25:21.644Z,328
2016-03-21T05:26:54.412Z,360
2016-03-21T05:27:26.320Z,396
2016-03-21T05:29:04.026Z,436
2016-03-21T05:29:29.857Z,460
2016-03-21T05:30:42.563Z,492
2016-03-21T05:32:49.725Z,556
2016-03-21T05:36:05.251Z,648
2016-03-21T05:37:17.395Z,700
2016-03-21T05:38:05.272Z,732
2016-03-21T05:40:03.056Z,812
2016-03-21T05:40:34.872Z,832
2016-03-21T05:41:35.014Z,948
2016-03-21T05:43:21.550Z,956
2016-03-21T05:43:53.675Z,940
2016-03-21T05:44:34.476Z,932
2016-03-21T05:45:54.369Z,776
2016-03-21T05:46:47.466Z,672
2016-03-21T05:48:00.421Z,736
2016-03-21T05:49:56.864Z,780
2016-03-21T05:51:41.120Z,804
2016-03-21T05:51:53.730Z,804
2016-03-21T05:54:00.735Z,816
2016-03-21T05:55:16.412Z,868
2016-03-21T05:56:23.305Z,976
2016-03-21T05:57:52.323Z,1124
2016-03-21T05:58:36.748Z,1216
2016-03-21T05:59:37.438Z,1280
2016-03-21T06:00:49.081Z,1304
2016-03-21T06:01:49.068Z,1320
2016-03-21T06:02:55.273Z,1640
2016-03-21T06:03:55.840Z,1896
2016-03-21T06:05:02.482Z,1940
2016-03-21T06:06:33.191Z,1992
2016-03-21T06:07:11.475Z,1900
2016-03-21T06:08:48.556Z,1580
2016-03-21T06:09:27.542Z,1576
2016-03-21T06:10:01.714Z,1592
2016-03-21T06:11:27.173Z,1544
2016-03-21T06:12:11.051Z,1608
2016-03-21T06:13:11.210Z,1652
2016-03-21T06:14:11.666Z,1724
2016-03-21T06:15:11.622Z,1648
2016-03-21T06:16:25.155Z,1592
2016-03-21T06:17:11.205Z,1644
2016-03-21T06:19:02.786Z,1496
2016-03-21T06:19:18.741Z,1440
2016-03-21T06:20:15.869Z,1424
2016-03-21T06:21:16.075Z,1240
2016-03-21T06:22:28.250Z,1092
2016-03-21T06:23:15.768Z,1016
2016-03-21T06:24:34.911Z,1132
2016-03-21T06:25:16.071Z,1324
2016-03-21T06:26:15.527Z,1352
2016-03-21T06:27:16.310Z,1372
2016-03-21T06:28:15.578Z,1872
2016-03-21T06:29:17.066Z,1720
2016-03-21T06:30:15.834Z,1576
2016-03-21T06:31:34.868Z,1652
2016-03-21T06:32:15.871Z,1736
2016-03-21T06:33:15.779Z,2084
2016-03-21T06:34:15.657Z,2540
2016-03-21T06:35:15.800Z,2896
2016-03-21T06:36:16.350Z,2952
2016-03-21T06:37:28.446Z,2348
2016-03-21T06:38:16.309Z,1824
2016-03-21T06:39:35.608Z,2196
2016-03-21T06:40:23.423Z,2092
2016-03-21T06:41:41.489Z,2300
2016-03-21T06:42:15.756Z,2652
2016-03-21T06:43:16.025Z,2568
2016-03-21T06:44:29.231Z,2012
2016-03-21T06:45:16.639Z,1908
2016-03-21T06:46:16.392Z,1992
2016-03-21T06:47:16.239Z,2176
2016-03-21T06:48:22.430Z,2184
2016-03-21T06:49:16.432Z,2180
2016-03-21T06:50:17.075Z,2960
2016-03-21T06:51:16.797Z,3776
2016-03-21T06:52:16.581Z,4176
2016-03-21T06:53:35.146Z,3228
2016-03-21T06:54:22.492Z,2804
2016-03-21T06:55:42.370Z,3376
2016-03-21T06:56:16.544Z,3604
2016-03-21T06:57:47.749Z,4136
2016-03-21T06:58:19.675Z,4512
2016-03-21T07:00:19.118Z,3812
2016-03-21T07:01:19.620Z,3524
2016-03-21T07:02:20.076Z,3152
2016-03-21T07:03:19.704Z,3884
2016-03-21T07:04:19.690Z,3332
2016-03-21T07:05:20.507Z,2236
2016-03-21T07:06:20.993Z,1992
2016-03-21T07:07:19.753Z,2048
2016-03-21T07:08:20.006Z,2280
2016-03-21T07:09:20.040Z,2656
2016-03-21T07:10:20.043Z,2720
2016-03-21T07:11:20.092Z,2208
2016-03-21T07:12:20.142Z,2012
2016-03-21T07:13:20.098Z,1924
2016-03-21T07:14:19.897Z,1860
2016-03-21T07:15:20.931Z,2084
2016-03-21T07:16:19.964Z,1832
2016-03-21T07:17:19.922Z,1532
2016-03-21T07:18:32.814Z,1280
2016-03-21T07:19:26.364Z,1128
2016-03-21T07:20:45.820Z,1376
2016-03-21T07:21:19.978Z,1412
2016-03-21T07:22:45.794Z,1060
2016-03-21T07:23:20.577Z,952
2016-03-21T07:24:20.691Z,980
2016-03-21T07:25:20.677Z,988
2016-03-21T07:26:20.210Z,888
2016-03-21T07:27:20.713Z,952
2016-03-21T07:28:20.529Z,980
2016-03-21T07:29:20.516Z,936
2016-03-21T07:30:20.909Z,900
2016-03-21T07:31:20.835Z,812
2016-03-21T07:32:20.680Z,768
2016-03-21T07:33:20.260Z,872
2016-03-21T07:34:20.670Z,916
2016-03-21T07:35:20.891Z,1040
2016-03-21T07:36:20.534Z,1132
2016-03-21T07:37:39.662Z,1448
2016-03-21T07:38:20.509Z,1552
2016-03-21T07:39:46.340Z,2156
2016-03-21T07:40:24.951Z,2216
2016-03-21T07:41:24.704Z,2596
2016-03-21T07:42:24.692Z,2724
2016-03-21T07:43:24.756Z,2968
2016-03-21T07:44:25.056Z,3432
2016-03-21T07:45:25.239Z,3848
2016-03-21T07:46:24.978Z,4364
2016-03-21T07:47:25.184Z,4372
2016-03-21T07:48:25.065Z,3764
2016-03-21T07:49:24.928Z,4448
2016-03-21T07:50:25.626Z,5840
2016-03-21T07:51:24.779Z,6572
2016-03-21T07:52:24.745Z,6520
2016-03-21T07:53:24.885Z,5400
2016-03-21T07:54:25.491Z,4444
2016-03-21T07:55:24.974Z,4104
2016-03-21T07:56:25.257Z,3704
2016-03-21T07:57:25.305Z,3040
2016-03-21T07:58:25.133Z,3624
2016-03-21T07:59:31.524Z,4668
2016-03-21T08:00:25.011Z,4228
2016-03-21T08:01:25.403Z,3500
2016-03-21T08:02:37.718Z,3388
2016-03-21T08:03:37.720Z,4004
2016-03-21T08:04:25.003Z,4128
2016-03-21T08:05:25.068Z,3508
2016-03-21T08:06:37.960Z,3392
2016-03-21T08:07:25.261Z,3192
2016-03-21T08:08:44.357Z,3104
2016-03-21T08:09:37.750Z,2880
2016-03-21T08:10:44.518Z,2888
2016-03-21T08:12:34.805Z,4392
2016-03-21T08:14:25.499Z,6428
2016-03-21T08:15:29.423Z,6960
2016-03-21T08:15:42.516Z,7576
2016-03-21T08:16:42.550Z,7872
2016-03-21T08:17:42.568Z,8180
2016-03-21T08:18:48.649Z,7912
2016-03-21T08:20:01.871Z,8620
2016-03-21T08:20:55.686Z,10392
2016-03-21T08:22:13.754Z,10812
2016-03-21T08:23:01.895Z,11588
2016-03-21T08:23:42.959Z,12056
2016-03-21T08:25:49.231Z,11968
2016-03-21T08:26:46.265Z,11832
2016-03-21T08:27:49.955Z,11312
2016-03-21T08:28:46.583Z,11036
2016-03-21T08:29:47.038Z,9836
2016-03-21T08:30:53.228Z,8724
2016-03-21T08:31:59.824Z,7644
2016-03-21T08:32:47.172Z,6960
2016-03-21T08:33:59.424Z,6660
2016-03-21T08:34:47.599Z,6840
2016-03-21T08:35:46.774Z,7820
2016-03-21T08:37:07.386Z,7896
2016-03-21T08:37:46.888Z,7784
2016-03-21T08:39:13.691Z,8808
2016-03-21T08:40:23.537Z,10144
2016-03-21T08:40:57.896Z,10376
2016-03-21T08:41:57.946Z,10032
2016-03-21T08:42:59.417Z,9476
2016-03-21T08:43:59.076Z,9136
2016-03-21T08:44:57.766Z,10724
2016-03-21T08:45:57.706Z,10800
2016-03-21T08:46:57.960Z,9440
2016-03-21T08:47:57.993Z,9712
2016-03-21T08:48:57.887Z,10684
2016-03-21T08:49:57.936Z,10768
2016-03-21T08:50:58.064Z,9180
2016-03-21T08:52:04.098Z,8152
2016-03-21T08:52:58.475Z,6136
2016-03-21T08:53:58.290Z,5608
2016-03-21T08:54:57.950Z,5848
2016-03-21T08:55:58.264Z,6268
2016-03-21T08:57:10.895Z,6992
2016-03-21T08:57:58.036Z,7368
2016-03-21T08:58:58.648Z,8320
2016-03-21T08:59:58.041Z,9420
2016-03-21T09:00:58.044Z,10916
2016-03-21T09:01:58.844Z,12804
2016-03-21T09:03:17.302Z,13288
2016-03-21T09:03:58.333Z,13248
2016-03-21T09:05:24.307Z,13172
2016-03-21T09:05:58.385Z,12892
2016-03-21T09:06:58.153Z,12344
2016-03-21T09:07:58.188Z,12392
2016-03-21T09:08:59.222Z,13044
2016-03-21T09:09:58.552Z,13192
2016-03-21T09:10:58.493Z,12620
2016-03-21T09:11:59.480Z,11920
2016-03-21T09:12:58.232Z,11768
2016-03-21T09:13:58.281Z,12460
2016-03-21T09:15:04.714Z,12900
2016-03-21T09:15:58.341Z,11244
2016-03-21T09:16:58.547Z,10676
2016-03-21T09:18:11.178Z,11816
2016-03-21T09:18:59.006Z,12280
2016-03-21T09:20:17.650Z,12368
2016-03-21T09:20:58.697Z,11164
2016-03-21T09:22:24.375Z,7332
2016-03-21T09:23:02.922Z,6444
2016-03-21T09:24:59.975Z,5236
2016-03-21T09:25:12.758Z,5416
2016-03-21T09:26:25.558Z,6392
2016-03-21T09:27:25.873Z,4884
2016-03-21T09:28:13.172Z,4204
2016-03-21T09:29:13.566Z,4276
2016-03-21T09:30:13.771Z,4400
2016-03-21T09:31:26.009Z,4236
2016-03-21T09:32:12.777Z,3728
2016-03-21T09:33:13.092Z,3064
2016-03-21T09:34:13.111Z,3480
2016-03-21T09:35:12.910Z,4360
2016-03-21T09:36:12.913Z,4428
2016-03-21T09:37:12.993Z,5272
2016-03-21T09:38:13.090Z,5812
2016-03-21T09:39:13.234Z,5428
2016-03-21T09:40:12.923Z,5144
2016-03-21T09:41:26.348Z,5396
2016-03-21T09:42:19.241Z,5232
2016-03-21T09:43:32.197Z,5248
2016-03-21T09:44:13.434Z,5036
2016-03-21T09:45:38.875Z,4220
2016-03-21T09:46:13.018Z,4172
2016-03-21T09:47:44.395Z,3720
2016-03-21T09:48:13.055Z,3924
2016-03-21T09:49:13.292Z,5020
2016-03-21T09:50:13.435Z,5784
2016-03-21T09:51:25.844Z,5340
2016-03-21T09:52:13.409Z,5640
2016-03-21T09:54:10.774Z,5092
2016-03-21T09:54:23.383Z,4840
2016-03-21T09:55:23.511Z,4888
2016-03-21T09:56:23.482Z,5328
2016-03-21T09:57:24.047Z,5164
2016-03-21T09:58:23.893Z,5056
2016-03-21T09:59:23.756Z,4656
2016-03-21T10:00:23.758Z,3532
2016-03-21T10:01:36.245Z,3308
2016-03-21T10:02:23.810Z,3864
2016-03-21T10:03:23.829Z,5612
2016-03-21T10:04:23.957Z,7336
2016-03-21T10:05:23.615Z,7376
2016-03-21T10:06:23.916Z,7252
2016-03-21T10:07:23.810Z,7076
2016-03-21T10:08:23.843Z,7340
2016-03-21T10:09:23.894Z,8348
2016-03-21T10:10:25.302Z,10280
2016-03-21T10:11:24.180Z,11180
2016-03-21T10:12:23.823Z,11252
2016-03-21T10:14:52.781Z,10660
2016-03-21T10:15:27.143Z,10628
2016-03-21T10:16:27.521Z,9928
2016-03-21T10:17:27.149Z,9292
2016-03-21T10:18:27.386Z,8732
2016-03-21T10:19:27.607Z,8816
2016-03-21T10:20:27.610Z,9032
2016-03-21T10:21:27.223Z,8872
2016-03-21T10:22:27.256Z,8224
2016-03-21T10:23:46.946Z,6948
2016-03-21T10:24:27.590Z,5932
2016-03-21T10:25:28.640Z,6432
2016-03-21T10:26:28.001Z,8604
2016-03-21T10:27:27.848Z,9728
2016-03-21T10:28:27.569Z,10260
2016-03-21T10:29:27.416Z,11328
2016-03-21T10:30:27.402Z,11464
2016-03-21T10:31:40.061Z,11472
2016-03-21T10:32:27.408Z,10880
2016-03-21T10:33:28.144Z,9504
2016-03-21T10:34:27.617Z,7840
2016-03-21T10:35:27.650Z,7536
2016-03-21T10:36:27.685Z,9480
2016-03-21T10:37:28.344Z,10296
2016-03-21T10:38:27.471Z,10636
2016-03-21T10:39:27.755Z,11472
2016-03-21T10:40:28.008Z,12212
2016-03-21T10:41:28.089Z,12580
2016-03-21T10:42:40.279Z,13532
2016-03-21T10:43:27.812Z,13912
2016-03-21T10:44:52.674Z,13620
2016-03-21T10:45:27.693Z,12792
2016-03-21T10:46:58.977Z,10124
2016-03-21T10:47:34.168Z,10328
2016-03-21T10:48:27.920Z,9304
2016-03-21T10:49:27.704Z,10124
2016-03-21T10:50:40.643Z,10116
2016-03-21T10:51:31.054Z,8560
2016-03-21T10:52:27.774Z,7304
2016-03-21T10:53:28.042Z,6040
2016-03-21T10:54:28.123Z,4856
2016-03-21T10:55:27.861Z,3920
2016-03-21T10:56:29.613Z,4460
2016-03-21T10:57:28.273Z,6148
2016-03-21T10:58:27.853Z,6868
2016-03-21T10:59:29.606Z,6812
2016-03-21T11:00:28.374Z,7040
2016-03-21T11:01:28.080Z,7964
2016-03-21T11:02:28.067Z,9056
2016-03-21T11:03:28.319Z,10020
2016-03-21T11:04:28.119Z,11160
2016-03-21T11:05:29.403Z,11716
2016-03-21T11:06:34.522Z,12368
2016-03-21T11:07:28.072Z,12880
2016-03-21T11:08:28.075Z,13504
2016-03-21T11:09:34.844Z,13552
2016-03-21T11:10:28.269Z,13336
2016-03-21T11:11:28.209Z,13220
2016-03-21T11:12:28.477Z,12924
2016-03-21T11:13:29.074Z,12696
2016-03-21T11:14:28.263Z,12544
2016-03-21T11:15:41.000Z,12320
2016-03-21T11:16:28.566Z,12192
2016-03-21T11:17:28.224Z,11692
2016-03-21T11:18:28.695Z,10948
2016-03-21T11:19:28.746Z,10648
2016-03-21T11:20:29.842Z,10300
2016-03-21T11:21:28.720Z,9592
2016-03-21T11:22:30.191Z,9464
2016-03-21T11:23:28.381Z,9736
2016-03-21T11:24:29.274Z,10540
2016-03-21T11:25:29.715Z,11120
2016-03-21T11:26:29.109Z,11472
2016-03-21T11:27:28.751Z,12108
2016-03-21T11:28:28.519Z,12752
2016-03-21T11:29:28.554Z,13284
2016-03-21T11:30:28.509Z,13876
2016-03-21T11:31:28.494Z,14512
2016-03-21T11:32:28.763Z,14884
2016-03-21T11:33:41.275Z,15064
2016-03-21T11:34:35.149Z,15416
2016-03-21T11:35:54.901Z,15968
2016-03-21T11:36:28.311Z,16032
2016-03-21T11:37:29.517Z,16000
2016-03-21T11:38:28.785Z,15872
2016-03-21T11:39:28.709Z,15368
2016-03-21T11:40:28.868Z,15332
2016-03-21T11:41:28.730Z,15252
2016-03-21T11:42:28.874Z,14452
2016-03-21T11:43:28.783Z,14328
2016-03-21T11:44:29.301Z,14192
2016-03-21T11:45:28.834Z,13108
2016-03-21T11:46:29.041Z,12488
2016-03-21T11:47:28.872Z,11296
2016-03-21T11:48:28.889Z,9588
2016-03-21T11:49:28.986Z,9196
2016-03-21T11:50:28.958Z,7948
2016-03-21T11:51:28.694Z,6428
2016-03-21T11:52:29.010Z,5884
2016-03-21T11:53:29.075Z,5528
2016-03-21T11:54:29.124Z,5600
2016-03-21T11:55:29.627Z,4468
2016-03-21T11:56:42.068Z,3764
2016-03-21T11:57:29.586Z,4156
2016-03-21T11:58:29.432Z,4264
2016-03-21T11:59:29.169Z,4200
2016-03-21T12:00:29.719Z,4468
2016-03-21T12:01:29.190Z,4984
2016-03-21T12:02:29.147Z,5824
2016-03-21T12:03:29.243Z,6068
2016-03-21T12:04:29.870Z,5688
2016-03-21T12:05:42.451Z,7208
2016-03-21T12:06:29.110Z,7804
2016-03-21T12:07:55.163Z,8164
2016-03-21T12:08:35.511Z,8276
2016-03-21T12:10:00.575Z,8532
2016-03-21T12:10:29.672Z,8624
2016-03-21T12:11:29.315Z,8972
2016-03-21T12:12:42.146Z,10032
2016-03-21T12:13:29.602Z,10876
2016-03-21T12:14:48.651Z,11944
2016-03-21T12:15:58.076Z,13156
2016-03-21T12:16:33.188Z,13720
2016-03-21T12:17:52.222Z,14200
2016-03-21T12:18:45.585Z,14616
2016-03-21T12:19:32.649Z,14760
2016-03-21T12:20:58.354Z,14196
2016-03-21T12:21:33.968Z,13776
2016-03-21T12:23:29.643Z,14372
2016-03-21T12:23:42.581Z,13932
2016-03-21T12:25:13.853Z,13756
2016-03-21T12:25:42.415Z,12904
2016-03-21T12:27:14.062Z,11332
2016-03-21T12:27:55.562Z,11256
2016-03-21T12:28:42.642Z,10844
2016-03-21T12:30:52.585Z,12136
2016-03-21T12:32:05.587Z,12032
2016-03-21T12:33:18.670Z,11948
2016-03-21T12:33:52.608Z,11316
2016-03-21T12:34:52.627Z,9712
2016-03-21T12:35:52.708Z,8756
2016-03-21T12:37:05.398Z,7804
2016-03-21T12:38:05.417Z,8264
2016-03-21T12:38:53.138Z,9740
2016-03-21T12:39:52.953Z,11896
2016-03-21T12:40:52.752Z,12360
2016-03-21T12:41:52.755Z,12024
2016-03-21T12:42:53.070Z,11284
2016-03-21T12:43:52.854Z,11704
2016-03-21T12:44:53.122Z,12288
2016-03-21T12:45:52.844Z,12412
2016-03-21T12:46:53.002Z,12336
2016-03-21T12:47:53.177Z,11904
2016-03-21T12:48:53.149Z,11204
2016-03-21T12:49:52.917Z,9936
2016-03-21T12:50:52.920Z,8436
2016-03-21T12:51:53.047Z,8300
2016-03-21T12:52:53.221Z,8620
2016-03-21T12:54:05.912Z,7572
2016-03-21T12:54:53.087Z,7408
2016-03-21T12:56:12.436Z,7360
2016-03-21T12:57:05.842Z,10036
2016-03-21T12:58:18.957Z,10604
2016-03-21T12:58:53.129Z,9828
2016-03-21T13:01:08.572Z,10328
2016-03-21T13:02:34.155Z,8708
2016-03-21T13:03:21.674Z,7284
2016-03-21T13:04:35.083Z,7468
2016-03-21T13:05:08.583Z,8020
2016-03-21T13:06:08.694Z,9532
2016-03-21T13:07:09.250Z,9552
2016-03-21T13:08:09.022Z,8560
2016-03-21T13:09:09.055Z,7956
2016-03-21T13:10:08.528Z,9044
2016-03-21T13:11:08.561Z,9200
2016-03-21T13:12:08.846Z,8672
2016-03-21T13:13:09.176Z,7568
2016-03-21T13:14:08.929Z,8328
2016-03-21T13:15:08.807Z,9540
2016-03-21T13:16:08.746Z,9732
2016-03-21T13:17:09.641Z,9264
2016-03-21T13:18:08.955Z,9476
2016-03-21T13:19:09.490Z,9712
2016-03-21T13:20:09.039Z,9488
2016-03-21T13:21:09.026Z,9352
2016-03-21T13:22:09.137Z,8364
2016-03-21T13:23:09.187Z,7084
2016-03-21T13:24:08.315Z,6092
2016-03-21T13:25:09.318Z,6120
2016-03-21T13:26:09.195Z,6500
2016-03-21T13:27:09.136Z,7224
2016-03-21T13:28:08.951Z,7132
2016-03-21T13:29:09.172Z,7168
2016-03-21T13:30:09.675Z,7292
2016-03-21T13:31:09.694Z,7080
2016-03-21T13:32:09.071Z,8044
2016-03-21T13:33:09.261Z,8680
2016-03-21T13:34:09.342Z,7896
2016-03-21T13:35:09.329Z,7720
2016-03-21T13:36:17.194Z,7172
2016-03-21T13:37:16.088Z,6184
2016-03-21T13:38:09.759Z,5128
2016-03-21T13:39:09.168Z,3580
2016-03-21T13:40:09.155Z,3288
2016-03-21T13:41:09.158Z,3724
2016-03-21T13:42:09.269Z,3476
2016-03-21T13:43:12.275Z,3048
2016-03-21T13:44:09.213Z,2616
2016-03-21T13:45:09.418Z,2992
2016-03-21T13:46:09.984Z,3952
2016-03-21T13:47:09.330Z,5012
2016-03-21T13:48:09.333Z,4768
2016-03-21T13:49:10.117Z,4288
2016-03-21T13:50:10.229Z,6208
2016-03-21T13:51:09.435Z,6052
2016-03-21T13:52:09.375Z,4472
2016-03-21T13:53:10.033Z,4888
2016-03-21T13:54:10.036Z,5856
2016-03-21T13:55:09.492Z,6360
2016-03-21T13:56:09.901Z,6672
2016-03-21T13:57:09.701Z,6820
2016-03-21T13:58:09.531Z,6928
2016-03-21T13:59:09.815Z,6336
2016-03-21T14:00:09.631Z,5364
2016-03-21T14:01:10.008Z,4128
2016-03-21T14:02:10.339Z,4308
2016-03-21T14:03:09.888Z,4900
2016-03-21T14:04:09.829Z,4312
2016-03-21T14:05:11.019Z,3332
2016-03-21T14:06:22.619Z,3752
2016-03-21T14:07:09.874Z,4384
2016-03-21T14:08:09.610Z,4732
2016-03-21T14:09:09.738Z,4448
2016-03-21T14:10:09.772Z,4100
2016-03-21T14:11:09.868Z,3404
2016-03-21T14:12:23.061Z,3096
2016-03-21T14:13:10.093Z,2636
2016-03-21T14:14:09.752Z,2148
2016-03-21T14:15:10.004Z,1876
2016-03-21T14:16:09.912Z,2044
2016-03-21T14:17:35.528Z,2036
2016-03-21T14:18:09.903Z,2460
2016-03-21T14:19:10.296Z,3868
2016-03-21T14:20:09.876Z,4916
2016-03-21T14:21:09.926Z,5356
2016-03-21T14:22:10.117Z,5684
2016-03-21T14:23:09.947Z,5532